Time;durP1;ratioP1;P1;durP2;ratioP2;P2;SDS_P1;SDS_P2;PMS_P1;PMS_P2;Temp;Humidity;BMP_temperature;BMP_pressure;BME280_temperature;BME280_humidity;BME280_pressure;Samples;Min_cycle;Max_cycle;Signal;HPM_P1;HPM_P2
2024/01/08 00:01:16;;;;;;;6.07;5.65;;;;;;;;;;4962753;28;20508;-62
2024/01/08 00:03:41;;;;;;;6.38;5.82;;;;;;;;;;4965382;28;20135;-61
2024/01/08 00:06:07;;;;;;;6.10;5.70;;;;;;;;;;4965900;28;20045;-63
2024/01/08 00:08:32;;;;;;;5.95;5.65;;;;;;;;;;4963311;28;20126;-61
2024/01/08 00:10:58;;;;;;;6.63;6.13;;;;;;;;;;4963661;28;20034;-62
2024/01/08 00:13:24;;;;;;;6.28;5.82;;;;;;;;;;4963772;28;20030;-62
2024/01/08 00:15:50;;;;;;;6.55;6.05;;;;;;;;;;4968938;28;20475;-63
2024/01/08 00:18:15;;;;;;;6.70;6.20;;;;;;;;;;4963943;28;20749;-61
2024/01/08 00:20:42;;;;;;;6.00;5.50;;;;;;;;;;4970044;28;20089;-63
2024/01/08 00:23:08;;;;;;;5.82;5.43;;;;;;;;;;4967019;28;20052;-61
2024/01/08 00:25:33;;;;;;;5.40;5.10;;;;;;;;;;4965760;28;20508;-63
2024/01/08 00:28:00;;;;;;;5.55;5.25;;;;;;;;;;4970017;28;20109;-61
2024/01/08 00:30:26;;;;;;;5.50;5.20;;;;;;;;;;4964732;28;20121;-62
2024/01/08 00:32:52;;;;;;;6.82;6.03;;;;;;;;;;4967337;28;20034;-63
2024/01/08 00:35:17;;;;;;;7.00;6.25;;;;;;;;;;4966357;28;20049;-62
2024/01/08 00:37:43;;;;;;;5.60;5.30;;;;;;;;;;4969398;28;20121;-62
2024/01/08 00:40:09;;;;;;;6.10;5.63;;;;;;;;;;4958473;28;20125;-61
2024/01/08 00:42:36;;;;;;;4.90;4.63;;;;;;;;;;4964294;28;20512;-62
2024/01/08 00:45:05;;;;;;;5.97;5.55;;;;;;;;;;4970203;28;20038;-62
2024/01/08 00:47:32;;;;;;;6.03;5.63;;;;;;;;;;4959833;28;20096;-61
2024/01/08 00:49:57;;;;;;;6.72;6.22;;;;;;;;;;4970711;28;20081;-61
2024/01/08 00:52:23;;;;;;;5.00;4.80;;;;;;;;;;4966585;28;20039;-62
2024/01/08 00:54:49;;;;;;;6.03;5.72;;;;;;;;;;4965633;28;20673;-63
2024/01/08 00:57:14;;;;;;;5.80;5.40;;;;;;;;;;4964437;28;20640;-62
2024/01/08 00:59:40;;;;;;;6.30;5.90;;;;;;;;;;4968685;28;20512;-62
2024/01/08 01:02:05;;;;;;;5.80;5.40;;;;;;;;;;4967787;28;20050;-63
2024/01/08 01:04:31;;;;;;;6.10;5.70;;;;;;;;;;4963820;28;20047;-62
2024/01/08 01:06:56;;;;;;;5.55;5.25;;;;;;;;;;4968730;28;20038;-62
2024/01/08 01:09:22;;;;;;;5.80;5.50;;;;;;;;;;4966797;28;20038;-62
2024/01/08 01:11:47;;;;;;;5.55;5.25;;;;;;;;;;4970892;28;20751;-60
2024/01/08 01:14:13;;;;;;;6.35;5.90;;;;;;;;;;4962204;28;20442;-62
2024/01/08 01:16:38;;;;;;;6.53;6.13;;;;;;;;;;4965265;28;20034;-61
2024/01/08 01:19:04;;;;;;;5.60;5.30;;;;;;;;;;4966826;28;20082;-60
2024/01/08 01:21:30;;;;;;;6.53;6.03;;;;;;;;;;4940073;28;20047;-61
2024/01/08 01:23:55;;;;;;;6.35;5.75;;;;;;;;;;4969420;28;20038;-62
2024/01/08 01:26:21;;;;;;;6.45;5.95;;;;;;;;;;4966885;28;20054;-62
2024/01/08 01:28:47;;;;;;;5.72;5.32;;;;;;;;;;4971016;28;20034;-62
2024/01/08 01:31:13;;;;;;;5.88;5.50;;;;;;;;;;4963193;28;22470;-61
2024/01/08 01:33:39;;;;;;;5.18;4.88;;;;;;;;;;4969351;28;20069;-62
2024/01/08 01:36:06;;;;;;;6.00;5.60;;;;;;;;;;4948713;28;20046;-61
2024/01/08 01:38:32;;;;;;;6.18;5.68;;;;;;;;;;4965341;28;20122;-62
2024/01/08 01:40:57;;;;;;;6.57;6.07;;;;;;;;;;4969130;28;20036;-64
2024/01/08 01:43:25;;;;;;;6.15;5.70;;;;;;;;;;4962566;28;20120;-62
2024/01/08 01:45:52;;;;;;;6.80;6.30;;;;;;;;;;4967355;28;20108;-62
2024/01/08 01:48:18;;;;;;;6.85;6.25;;;;;;;;;;4960036;28;20080;-61
2024/01/08 01:50:44;;;;;;;5.72;5.32;;;;;;;;;;4966928;28;20038;-62
2024/01/08 01:53:10;;;;;;;5.28;5.00;;;;;;;;;;4966255;28;20049;-63
2024/01/08 01:55:36;;;;;;;5.95;5.45;;;;;;;;;;4967866;28;20034;-62
2024/01/08 01:58:02;;;;;;;6.05;5.70;;;;;;;;;;4963983;28;20726;-62
2024/01/08 02:00:28;;;;;;;6.15;5.75;;;;;;;;;;4962408;28;20050;-62
2024/01/08 02:02:54;;;;;;;6.40;5.80;;;;;;;;;;4967424;28;20059;-62
2024/01/08 02:05:21;;;;;;;5.68;5.28;;;;;;;;;;4963300;28;20045;-62
2024/01/08 02:07:47;;;;;;;5.90;5.50;;;;;;;;;;4963909;28;20026;-62
2024/01/08 02:10:13;;;;;;;6.40;5.90;;;;;;;;;;4969103;28;20045;-61
2024/01/08 02:12:38;;;;;;;5.55;5.20;;;;;;;;;;4960992;28;20030;-62
2024/01/08 02:15:04;;;;;;;6.90;6.40;;;;;;;;;;4965487;28;20030;-61
2024/01/08 02:17:32;;;;;;;5.50;5.13;;;;;;;;;;4967540;28;20039;-61
2024/01/08 02:19:57;;;;;;;6.00;5.50;;;;;;;;;;4968070;28;20030;-60
2024/01/08 02:22:23;;;;;;;5.72;5.32;;;;;;;;;;4961280;28;20117;-61
2024/01/08 02:24:48;;;;;;;5.68;5.28;;;;;;;;;;4970537;28;20143;-60
2024/01/08 02:27:14;;;;;;;4.85;4.65;;;;;;;;;;4968942;28;20084;-60
2024/01/08 02:29:40;;;;;;;6.68;6.07;;;;;;;;;;4966086;28;20621;-63
2024/01/08 02:32:07;;;;;;;5.63;5.22;;;;;;;;;;4967614;28;20036;-62
2024/01/08 02:34:33;;;;;;;5.30;5.00;;;;;;;;;;4967088;28;20039;-61
2024/01/08 02:36:58;;;;;;;6.60;6.10;;;;;;;;;;4967521;28;20040;-61
2024/01/08 02:39:24;;;;;;;6.35;5.85;;;;;;;;;;4962504;28;20042;-61
2024/01/08 02:41:50;;;;;;;6.90;6.40;;;;;;;;;;4971283;28;20073;-62
2024/01/08 02:44:15;;;;;;;6.75;6.15;;;;;;;;;;4968179;28;20038;-62
2024/01/08 02:46:41;;;;;;;6.05;5.65;;;;;;;;;;4965396;28;20046;-62
2024/01/08 02:49:06;;;;;;;5.80;5.43;;;;;;;;;;4966490;28;20628;-62
2024/01/08 02:51:32;;;;;;;6.50;6.00;;;;;;;;;;4967080;28;20038;-61
2024/01/08 02:53:58;;;;;;;6.45;5.95;;;;;;;;;;4963828;28;20034;-63
2024/01/08 02:56:25;;;;;;;6.10;5.72;;;;;;;;;;4961297;28;20513;-61
2024/01/08 02:58:51;;;;;;;6.30;5.80;;;;;;;;;;4963023;28;20049;-60
2024/01/08 03:01:17;;;;;;;6.28;5.40;;;;;;;;;;4964796;28;20034;-61
2024/01/08 03:03:42;;;;;;;5.63;5.30;;;;;;;;;;4957912;28;20563;-62
2024/01/08 03:06:08;;;;;;;11.68;5.97;;;;;;;;;;4961079;28;20714;-61
2024/01/08 03:08:34;;;;;;;5.90;5.50;;;;;;;;;;4964185;28;20031;-61
2024/01/08 03:10:59;;;;;;;6.22;5.82;;;;;;;;;;4967935;28;20049;-63
2024/01/08 03:13:25;;;;;;;6.20;5.80;;;;;;;;;;4947108;28;20054;-60
2024/01/08 03:15:51;;;;;;;5.82;5.40;;;;;;;;;;4959923;28;20043;-62
2024/01/08 03:18:16;;;;;;;5.78;5.32;;;;;;;;;;4961774;28;20030;-63
2024/01/08 03:20:42;;;;;;;6.97;6.47;;;;;;;;;;4960951;28;20030;-61
2024/01/08 03:23:09;;;;;;;6.22;5.82;;;;;;;;;;4963153;28;20085;-61
2024/01/08 03:25:36;;;;;;;5.85;5.45;;;;;;;;;;4966363;28;20073;-61
2024/01/08 03:28:02;;;;;;;6.57;6.07;;;;;;;;;;4966999;28;20065;-59
2024/01/08 03:30:28;;;;;;;6.68;6.20;;;;;;;;;;4964646;28;20047;-61
2024/01/08 03:32:53;;;;;;;7.25;6.72;;;;;;;;;;4966364;28;20033;-62
2024/01/08 03:35:19;;;;;;;6.38;5.97;;;;;;;;;;4963253;28;20038;-61
2024/01/08 03:37:45;;;;;;;5.55;5.25;;;;;;;;;;4968782;28;20065;-61
2024/01/08 03:40:11;;;;;;;7.35;6.85;;;;;;;;;;4965544;28;20576;-62
2024/01/08 03:42:37;;;;;;;7.22;6.63;;;;;;;;;;4963800;28;20504;-60
2024/01/08 03:45:03;;;;;;;7.70;7.00;;;;;;;;;;4965814;28;20042;-61
2024/01/08 03:47:29;;;;;;;6.35;5.85;;;;;;;;;;4966844;28;20039;-61
2024/01/08 03:49:55;;;;;;;6.75;6.25;;;;;;;;;;4969683;28;20042;-62
2024/01/08 03:52:22;;;;;;;6.60;6.15;;;;;;;;;;4965606;28;20688;-58
2024/01/08 03:54:47;;;;;;;6.68;6.18;;;;;;;;;;4965661;28;20062;-61
2024/01/08 03:57:13;;;;;;;6.88;6.28;;;;;;;;;;4968454;28;20122;-61
2024/01/08 03:59:38;;;;;;;7.03;6.53;;;;;;;;;;4962104;28;20042;-62
2024/01/08 04:02:04;;;;;;;6.60;6.05;;;;;;;;;;4966646;28;20050;-62
2024/01/08 04:04:30;;;;;;;6.72;6.22;;;;;;;;;;4962203;28;20043;-62
2024/01/08 04:06:55;;;;;;;6.97;6.40;;;;;;;;;;4961361;28;20041;-62
2024/01/08 04:09:21;;;;;;;6.10;5.70;;;;;;;;;;4946890;28;20046;-61
2024/01/08 04:11:46;;;;;;;7.13;6.53;;;;;;;;;;4965671;28;20126;-62
2024/01/08 04:14:12;;;;;;;6.03;5.63;;;;;;;;;;4962293;28;20416;-62
2024/01/08 04:16:38;;;;;;;6.78;6.18;;;;;;;;;;4961870;28;20145;-62
2024/01/08 04:19:04;;;;;;;6.45;6.03;;;;;;;;;;4966132;28;20038;-59
2024/01/08 04:21:29;;;;;;;6.70;6.20;;;;;;;;;;4964891;28;20493;-62
2024/01/08 04:23:55;;;;;;;6.60;6.10;;;;;;;;;;4958410;28;20558;-63
2024/01/08 04:26:20;;;;;;;6.22;5.82;;;;;;;;;;4963771;28;20041;-62
2024/01/08 04:28:47;;;;;;;6.07;5.68;;;;;;;;;;4950011;28;20070;-61
2024/01/08 04:31:18;;;;;;;6.55;6.13;;;;;;;;;;4960262;28;20506;-61
2024/01/08 04:33:43;;;;;;;7.53;6.72;;;;;;;;;;4961694;28;20040;-60
2024/01/08 04:36:09;;;;;;;6.28;5.97;;;;;;;;;;4965402;28;20038;-61
2024/01/08 04:38:35;;;;;;;5.78;5.43;;;;;;;;;;4958526;28;20138;-61
2024/01/08 04:41:00;;;;;;;6.50;6.00;;;;;;;;;;4962405;28;20320;-61
2024/01/08 04:43:26;;;;;;;5.40;5.10;;;;;;;;;;4963130;28;20041;-62
2024/01/08 04:45:51;;;;;;;6.13;5.72;;;;;;;;;;4958117;28;20058;-60
2024/01/08 04:48:17;;;;;;;5.90;5.50;;;;;;;;;;4960607;28;20034;-61
2024/01/08 04:50:42;;;;;;;7.15;6.65;;;;;;;;;;4960867;28;20033;-59
2024/01/08 04:53:08;;;;;;;6.65;5.82;;;;;;;;;;4967515;28;20066;-61
2024/01/08 04:55:33;;;;;;;6.13;5.72;;;;;;;;;;4969201;28;20035;-62
2024/01/08 04:57:59;;;;;;;5.75;5.35;;;;;;;;;;4957378;28;20057;-62
2024/01/08 05:00:24;;;;;;;6.15;5.75;;;;;;;;;;4973205;28;20046;-64
2024/01/08 05:02:51;;;;;;;5.88;5.57;;;;;;;;;;4974732;28;20050;-62
2024/01/08 05:05:16;;;;;;;6.97;6.38;;;;;;;;;;4977285;28;20548;-62
2024/01/08 05:07:42;;;;;;;6.63;6.05;;;;;;;;;;4970534;28;20062;-62
2024/01/08 05:10:07;;;;;;;5.20;4.90;;;;;;;;;;4973568;28;20038;-63
2024/01/08 05:12:33;;;;;;;6.45;6.00;;;;;;;;;;4971246;28;20064;-63
2024/01/08 05:14:58;;;;;;;6.25;5.78;;;;;;;;;;4967686;28;20039;-61
2024/01/08 05:17:24;;;;;;;5.97;5.57;;;;;;;;;;4969016;28;20039;-62
2024/01/08 05:19:51;;;;;;;6.00;5.57;;;;;;;;;;4967432;28;20485;-62
2024/01/08 05:22:16;;;;;;;6.68;6.18;;;;;;;;;;4959556;28;20124;-62
2024/01/08 05:24:42;;;;;;;6.65;5.97;;;;;;;;;;4962769;28;20155;-62
2024/01/08 05:27:07;;;;;;;6.10;5.70;;;;;;;;;;4969724;28;20042;-61
2024/01/08 05:29:33;;;;;;;6.18;5.75;;;;;;;;;;4967261;28;20043;-60
2024/01/08 05:31:58;;;;;;;6.43;6.00;;;;;;;;;;4973438;28;20050;-61
2024/01/08 05:34:24;;;;;;;6.70;6.03;;;;;;;;;;4947092;28;20027;-61
2024/01/08 05:36:49;;;;;;;4.97;4.68;;;;;;;;;;4960800;28;20145;-62
2024/01/08 05:39:16;;;;;;;6.25;5.65;;;;;;;;;;4970485;28;20097;-60
2024/01/08 05:41:41;;;;;;;7.88;7.13;;;;;;;;;;4965813;28;20061;-61
2024/01/08 05:44:08;;;;;;;7.10;6.60;;;;;;;;;;4974912;28;20034;-61
2024/01/08 05:46:34;;;;;;;5.95;5.55;;;;;;;;;;4962822;28;20049;-63
2024/01/08 05:49:00;;;;;;;5.75;5.43;;;;;;;;;;4969372;28;20061;-60
2024/01/08 05:51:29;;;;;;;6.85;6.45;;;;;;;;;;4970481;28;20664;-61
2024/01/08 05:53:54;;;;;;;6.40;6.00;;;;;;;;;;4958347;28;20074;-61
2024/01/08 05:56:20;;;;;;;6.32;5.93;;;;;;;;;;4964036;28;20063;-62
2024/01/08 05:58:46;;;;;;;5.63;5.25;;;;;;;;;;4966619;28;20039;-61
2024/01/08 06:01:12;;;;;;;6.78;6.28;;;;;;;;;;4969562;28;20460;-61
2024/01/08 06:03:38;;;;;;;6.82;6.32;;;;;;;;;;4967483;28;21599;-60
2024/01/08 06:06:04;;;;;;;6.13;5.72;;;;;;;;;;4970657;28;20129;-58
2024/01/08 06:08:30;;;;;;;6.70;6.10;;;;;;;;;;4960484;28;20034;-60
2024/01/08 06:10:56;;;;;;;6.68;6.18;;;;;;;;;;4970130;28;20034;-61
2024/01/08 06:13:21;;;;;;;7.38;6.72;;;;;;;;;;4961574;28;20042;-62
2024/01/08 06:15:47;;;;;;;5.95;5.55;;;;;;;;;;4972672;28;20385;-61
2024/01/08 06:18:12;;;;;;;5.55;5.15;;;;;;;;;;4974590;28;20042;-61
2024/01/08 06:20:38;;;;;;;7.05;6.55;;;;;;;;;;4967182;28;20042;-60
2024/01/08 06:23:03;;;;;;;6.43;6.03;;;;;;;;;;4982462;28;20045;-61
2024/01/08 06:25:29;;;;;;;5.55;5.25;;;;;;;;;;4971693;28;20122;-61
2024/01/08 06:27:54;;;;;;;6.28;5.78;;;;;;;;;;4971604;28;20559;-61
2024/01/08 06:30:20;;;;;;;6.25;5.85;;;;;;;;;;4960762;28;20038;-62
2024/01/08 06:32:45;;;;;;;8.77;7.13;;;;;;;;;;4970765;28;20035;-61
2024/01/08 06:35:11;;;;;;;6.63;6.13;;;;;;;;;;4974496;28;20346;-61
2024/01/08 06:37:37;;;;;;;5.57;5.28;;;;;;;;;;4968415;28;20042;-62
2024/01/08 06:40:03;;;;;;;7.63;6.85;;;;;;;;;;4969721;28;20038;-60
2024/01/08 06:42:29;;;;;;;6.25;5.70;;;;;;;;;;4972093;28;20413;-60
2024/01/08 06:44:54;;;;;;;6.63;6.13;;;;;;;;;;4974952;28;20030;-62
2024/01/08 06:47:20;;;;;;;7.03;6.40;;;;;;;;;;4972522;28;20451;-61
2024/01/08 06:49:45;;;;;;;5.63;5.25;;;;;;;;;;4967494;28;20533;-61
2024/01/08 06:52:11;;;;;;;6.93;6.30;;;;;;;;;;4975424;28;20083;-62
2024/01/08 06:54:38;;;;;;;6.80;6.35;;;;;;;;;;4966532;28;20101;-62
2024/01/08 06:57:03;;;;;;;7.10;6.50;;;;;;;;;;4967703;28;20087;-62
2024/01/08 06:59:29;;;;;;;6.28;5.78;;;;;;;;;;4972088;28;20504;-62
2024/01/08 07:01:54;;;;;;;6.32;5.95;;;;;;;;;;4972277;28;20049;-61
2024/01/08 07:04:20;;;;;;;6.80;6.38;;;;;;;;;;4971593;28;20045;-61
2024/01/08 07:06:46;;;;;;;6.32;5.93;;;;;;;;;;4963047;28;20049;-59
2024/01/08 07:09:11;;;;;;;6.70;6.20;;;;;;;;;;4972293;28;20041;-61
2024/01/08 07:11:37;;;;;;;7.43;6.72;;;;;;;;;;4967853;28;20033;-62
2024/01/08 07:14:03;;;;;;;6.72;6.22;;;;;;;;;;4966845;28;20034;-62
2024/01/08 07:16:29;;;;;;;8.95;8.15;;;;;;;;;;4962168;28;20046;-61
2024/01/08 07:18:54;;;;;;;5.80;5.40;;;;;;;;;;4960551;28;20046;-63
2024/01/08 07:21:20;;;;;;;6.68;6.25;;;;;;;;;;4957483;28;20493;-62
2024/01/08 07:23:48;;;;;;;7.50;6.80;;;;;;;;;;4958206;28;20545;-63
2024/01/08 07:26:14;;;;;;;5.85;5.47;;;;;;;;;;4960456;28;20447;-62
2024/01/08 07:28:42;;;;;;;7.75;7.03;;;;;;;;;;4958657;28;20038;-63
2024/01/08 07:31:07;;;;;;;5.50;5.28;;;;;;;;;;4956378;28;20070;-62
2024/01/08 07:33:34;;;;;;;6.43;5.93;;;;;;;;;;4957408;28;20074;-63
2024/01/08 07:35:59;;;;;;;6.70;6.22;;;;;;;;;;4959969;28;20093;-63
2024/01/08 07:38:27;;;;;;;6.57;6.07;;;;;;;;;;4959775;28;20042;-62
2024/01/08 07:40:53;;;;;;;5.80;5.50;;;;;;;;;;4956737;28;20035;-62
2024/01/08 07:43:19;;;;;;;7.22;6.72;;;;;;;;;;4959004;28;20038;-63
2024/01/08 07:45:44;;;;;;;7.10;6.50;;;;;;;;;;4941464;28;20042;-62
2024/01/08 07:48:10;;;;;;;5.95;5.55;;;;;;;;;;4959964;28;20038;-61
2024/01/08 07:50:35;;;;;;;5.20;4.90;;;;;;;;;;4981186;23;20050;-82
2024/01/08 07:53:01;;;;;;;6.45;5.95;;;;;;;;;;4980331;28;20042;-82
2024/01/08 07:55:27;;;;;;;5.97;5.57;;;;;;;;;;4955920;28;20104;-82
2024/01/08 07:57:53;;;;;;;6.72;6.15;;;;;;;;;;4966682;28;20092;-82
2024/01/08 08:00:20;;;;;;;6.65;6.15;;;;;;;;;;4978321;28;20049;-83
2024/01/08 08:02:46;;;;;;;6.07;5.68;;;;;;;;;;4956404;28;20069;-82
2024/01/08 08:05:11;;;;;;;6.72;6.22;;;;;;;;;;4961467;28;20038;-82
2024/01/08 08:07:38;;;;;;;7.57;6.88;;;;;;;;;;4975106;28;20140;-82
2024/01/08 08:10:04;;;;;;;7.88;7.07;;;;;;;;;;4969364;28;20761;-82
2024/01/08 08:12:30;;;;;;;5.25;4.85;;;;;;;;;;4944438;28;20045;-83
2024/01/08 08:14:58;;;;;;;7.32;6.72;;;;;;;;;;4967441;28;20120;-82
2024/01/08 08:17:24;;;;;;;6.45;6.00;;;;;;;;;;4971704;28;20078;-82
2024/01/08 08:19:51;;;;;;;5.82;5.47;;;;;;;;;;4979611;28;20632;-82
2024/01/08 08:22:16;;;;;;;7.03;6.32;;;;;;;;;;4990271;28;20038;-81
2024/01/08 08:24:42;;;;;;;6.00;5.60;;;;;;;;;;4983252;28;20034;-82
2024/01/08 08:27:09;;;;;;;7.07;6.10;;;;;;;;;;4987291;28;20475;-83
2024/01/08 08:29:45;;;;;;;7.90;6.45;;;;;;;;;;4979077;28;20149;-82
2024/01/08 08:32:12;;;;;;;5.53;5.22;;;;;;;;;;4984457;28;20038;-82
2024/01/08 08:34:39;;;;;;;6.10;5.70;;;;;;;;;;4972727;28;20053;-82
2024/01/08 08:37:08;;;;;;;6.10;5.72;;;;;;;;;;4968523;28;20689;-81
2024/01/08 08:39:35;;;;;;;6.18;5.75;;;;;;;;;;4997431;28;20049;-82
2024/01/08 08:42:00;;;;;;;6.90;6.30;;;;;;;;;;4993205;28;20041;-82
2024/01/08 08:44:26;;;;;;;6.93;6.43;;;;;;;;;;4967307;28;20390;-82
2024/01/08 08:46:52;;;;;;;5.68;5.38;;;;;;;;;;4957329;28;20681;-81
2024/01/08 08:49:18;;;;;;;6.30;5.35;;;;;;;;;;4950949;28;20042;-80
2024/01/08 08:51:43;;;;;;;6.40;5.90;;;;;;;;;;4954933;28;20557;-81
2024/01/08 08:54:10;;;;;;;6.38;5.88;;;;;;;;;;4993255;28;20092;-81
2024/01/08 08:56:36;;;;;;;6.20;5.80;;;;;;;;;;4975498;28;20046;-82
2024/01/08 08:59:02;;;;;;;5.95;5.47;;;;;;;;;;4956784;28;20033;-82
2024/01/08 09:01:28;;;;;;;5.35;5.05;;;;;;;;;;4990480;28;20054;-83
2024/01/08 09:03:54;;;;;;;10.57;5.88;;;;;;;;;;4972738;28;20084;-82
2024/01/08 09:06:20;;;;;;;6.55;6.10;;;;;;;;;;4984242;28;20113;-82
2024/01/08 09:08:47;;;;;;;6.40;5.97;;;;;;;;;;4977996;28;20077;-82
2024/01/08 09:11:17;;;;;;;4.93;4.68;;;;;;;;;;5012529;28;20045;-82
2024/01/08 09:13:42;;;;;;;4.97;4.78;;;;;;;;;;4982995;28;20077;-82
2024/01/08 09:16:12;;;;;;;6.32;5.90;;;;;;;;;;4972479;28;20111;-81
2024/01/08 09:18:38;;;;;;;7.60;6.97;;;;;;;;;;4966947;28;20048;-82
2024/01/08 09:21:07;;;;;;;7.20;6.50;;;;;;;;;;4966847;28;20057;-82
2024/01/08 09:23:33;;;;;;;5.78;5.40;;;;;;;;;;4964814;28;20045;-82
2024/01/08 09:25:59;;;;;;;6.30;5.80;;;;;;;;;;4954026;28;20511;-82
2024/01/08 09:28:24;;;;;;;5.78;5.45;;;;;;;;;;4993121;28;20107;-82
2024/01/08 09:30:51;;;;;;;5.53;5.13;;;;;;;;;;4979912;28;20070;-82
2024/01/08 09:33:17;;;;;;;6.50;6.03;;;;;;;;;;4962528;28;20050;-82
2024/01/08 09:35:42;;;;;;;6.75;6.25;;;;;;;;;;4994594;28;20096;-82
2024/01/08 09:38:08;;;;;;;6.60;6.10;;;;;;;;;;4980266;28;20121;-82
2024/01/08 09:40:34;;;;;;;6.50;6.00;;;;;;;;;;4970713;28;20120;-82
2024/01/08 09:43:05;;;;;;;5.78;5.35;;;;;;;;;;4994971;28;20038;-82
2024/01/08 09:45:30;;;;;;;5.47;5.18;;;;;;;;;;4980796;28;20110;-82
2024/01/08 09:47:56;;;;;;;6.15;5.70;;;;;;;;;;4971732;28;20034;-82
2024/01/08 09:50:24;;;;;;;7.43;6.60;;;;;;;;;;4997596;28;20053;-82
2024/01/08 09:52:52;;;;;;;6.03;5.57;;;;;;;;;;4984264;28;20046;-82
2024/01/08 09:55:18;;;;;;;6.72;6.25;;;;;;;;;;4985887;28;20037;-82
2024/01/08 09:57:44;;;;;;;6.80;6.13;;;;;;;;;;4971263;28;20042;-82
2024/01/08 10:00:11;;;;;;;6.85;6.35;;;;;;;;;;4990475;28;20556;-82
2024/01/08 10:02:40;;;;;;;6.93;6.43;;;;;;;;;;4987154;28;20061;-82
2024/01/08 10:05:06;;;;;;;7.22;6.53;;;;;;;;;;4997598;28;20041;-82
2024/01/08 10:07:34;;;;;;;6.93;6.32;;;;;;;;;;4969665;28;20112;-82
2024/01/08 10:10:00;;;;;;;7.43;6.82;;;;;;;;;;4969075;28;20037;-83
2024/01/08 10:12:25;;;;;;;7.68;6.97;;;;;;;;;;4987975;28;20038;-82
2024/01/08 10:14:51;;;;;;;7.35;6.75;;;;;;;;;;4977537;28;20046;-82
2024/01/08 10:17:20;;;;;;;8.10;7.40;;;;;;;;;;4994210;28;20050;-83
2024/01/08 10:19:46;;;;;;;;;;;;;;;;;;4971755;28;20038;-82
2024/01/08 10:22:13;;;;;;;7.05;6.60;;;;;;;;;;4961824;28;20411;-82
2024/01/08 10:24:41;;;;;;;6.40;5.90;;;;;;;;;;4963069;28;20485;-82
2024/01/08 10:27:07;;;;;;;6.85;6.35;;;;;;;;;;4954239;28;20042;-82
2024/01/08 10:29:32;;;;;;;7.28;6.63;;;;;;;;;;4987824;28;20651;-82
2024/01/08 10:31:59;;;;;;;6.85;6.35;;;;;;;;;;4963910;28;20034;-82
2024/01/08 10:34:26;;;;;;;8.20;6.60;;;;;;;;;;4974997;28;20807;-82
2024/01/08 10:36:55;;;;;;;5.80;5.50;;;;;;;;;;4968255;28;20034;-83
2024/01/08 10:39:21;;;;;;;6.55;6.10;;;;;;;;;;4990252;28;20174;-82
2024/01/08 10:41:47;;;;;;;5.57;5.25;;;;;;;;;;4978296;28;20839;-82
2024/01/08 10:44:12;;;;;;;7.22;6.55;;;;;;;;;;4985541;28;20042;-82
2024/01/08 10:46:57;;;;;;;6.90;6.38;;;;;;;;;;4980425;28;20042;-82
2024/01/08 10:49:35;;;;;;;7.03;6.45;;;;;;;;;;4963442;28;20049;-82
2024/01/08 10:52:09;;;;;;;8.23;7.45;;;;;;;;;;5006123;28;20053;-82
2024/01/08 10:54:54;;;;;;;7.30;6.75;;;;;;;;;;4962550;28;20118;-82
2024/01/08 10:57:21;;;;;;;7.00;6.40;;;;;;;;;;5006077;28;20624;-82
2024/01/08 10:59:49;;;;;;;6.22;5.82;;;;;;;;;;4990573;28;20042;-83
2024/01/08 11:02:16;;;;;;;7.00;6.50;;;;;;;;;;4970304;28;20088;-83
2024/01/08 11:04:43;;;;;;;7.30;6.70;;;;;;;;;;4963013;28;20073;-82
2024/01/08 11:07:11;;;;;;;7.03;6.50;;;;;;;;;;4985426;28;20044;-82
2024/01/08 11:09:37;;;;;;;7.00;6.50;;;;;;;;;;4962449;28;20085;-82
2024/01/08 11:12:05;;;;;;;7.55;6.95;;;;;;;;;;4967525;28;20053;-83
2024/01/08 11:14:30;;;;;;;7.78;7.10;;;;;;;;;;4993103;28;20517;-83
2024/01/08 11:16:56;;;;;;;8.35;7.65;;;;;;;;;;4964976;28;20029;-83
2024/01/08 11:19:21;;;;;;;6.43;6.03;;;;;;;;;;4996916;28;20038;-82
2024/01/08 11:21:57;;;;;;;6.13;5.80;;;;;;;;;;4973141;28;20046;-83
2024/01/08 11:24:24;;;;;;;6.72;6.22;;;;;;;;;;4975009;28;20109;-83
2024/01/08 11:26:51;;;;;;;8.48;6.95;;;;;;;;;;4994724;28;20057;-82
2024/01/08 11:29:18;;;;;;;6.90;6.40;;;;;;;;;;4964815;28;20034;-82
2024/01/08 11:31:47;;;;;;;7.40;6.70;;;;;;;;;;4945955;28;20141;-82
2024/01/08 11:34:24;;;;;;;6.93;6.43;;;;;;;;;;4964497;28;20152;-83
2024/01/08 11:36:53;;;;;;;6.57;6.18;;;;;;;;;;4970411;28;20046;-83
2024/01/08 11:39:20;;;;;;;7.28;6.68;;;;;;;;;;4964939;28;20100;-82
2024/01/08 11:41:46;;;;;;;6.90;6.40;;;;;;;;;;4978818;28;20046;-82
2024/01/08 11:44:16;;;;;;;6.45;6.05;;;;;;;;;;4972603;28;20082;-82
2024/01/08 11:46:42;;;;;;;;;;;;;;;;;;4963074;28;20134;-82
2024/01/08 11:49:08;;;;;;;6.57;6.18;;;;;;;;;;4962666;28;19914;-82
2024/01/08 11:51:35;;;;;;;7.10;6.55;;;;;;;;;;4967952;28;20775;-82
2024/01/08 11:54:06;;;;;;;7.13;6.55;;;;;;;;;;4970042;28;20125;-83
2024/01/08 11:56:33;;;;;;;7.68;7.00;;;;;;;;;;4998388;28;20068;-82
2024/01/08 11:58:59;;;;;;;5.93;5.63;;;;;;;;;;4966277;28;20616;-82
2024/01/08 12:01:26;;;;;;;8.23;7.40;;;;;;;;;;4990787;28;20042;-82
2024/01/08 12:03:59;;;;;;;8.38;7.57;;;;;;;;;;4991533;28;20069;-82
2024/01/08 12:06:27;;;;;;;7.32;6.75;;;;;;;;;;4967495;28;20045;-83
2024/01/08 12:08:56;;;;;;;7.07;6.47;;;;;;;;;;4967412;28;20584;-82
2024/01/08 12:11:25;;;;;;;9.82;7.65;;;;;;;;;;4966950;28;20424;-83
2024/01/08 12:13:52;;;;;;;6.90;6.43;;;;;;;;;;4996935;28;20124;-83
2024/01/08 12:16:17;;;;;;;8.05;7.18;;;;;;;;;;4972175;28;20041;-82
2024/01/08 12:18:43;;;;;;;6.53;6.13;;;;;;;;;;4992546;28;20022;-83
2024/01/08 12:21:09;;;;;;;7.40;6.80;;;;;;;;;;4968142;28;20054;-83
2024/01/08 12:23:36;;;;;;;6.95;6.28;;;;;;;;;;4967349;28;20042;-83
2024/01/08 12:26:05;;;;;;;6.18;5.75;;;;;;;;;;4978909;28;20066;-82
2024/01/08 12:28:33;;;;;;;9.27;7.60;;;;;;;;;;4978105;28;20050;-82
2024/01/08 12:30:58;;;;;;;5.35;4.60;;;;;;;;;;4962784;28;20054;-82
2024/01/08 12:33:24;;;;;;;6.00;5.68;;;;;;;;;;4950989;28;20080;-82
2024/01/08 12:35:57;;;;;;;6.90;6.40;;;;;;;;;;4965655;28;20696;-82
2024/01/08 12:38:23;;;;;;;11.40;5.65;;;;;;;;;;4964252;28;20528;-82
2024/01/08 12:40:52;;;;;;;6.00;5.70;;;;;;;;;;4967031;28;20049;-82
2024/01/08 12:43:21;;;;;;;7.78;6.60;;;;;;;;;;4983289;28;20209;-82
2024/01/08 12:45:47;;;;;;;7.00;6.50;;;;;;;;;;4982260;28;20108;-81
2024/01/08 12:48:14;;;;;;;7.40;6.80;;;;;;;;;;4983413;28;20045;-83
2024/01/08 12:50:40;;;;;;;5.70;5.40;;;;;;;;;;4965972;28;20042;-82
2024/01/08 12:53:07;;;;;;;8.13;7.53;;;;;;;;;;4981771;28;20889;-82
2024/01/08 12:55:32;;;;;;;7.07;6.53;;;;;;;;;;4964721;28;20161;-82
2024/01/08 12:57:58;;;;;;;7.03;6.50;;;;;;;;;;4990305;28;20232;-82
2024/01/08 13:00:33;;;;;;;7.45;6.85;;;;;;;;;;4980041;28;20640;-82
2024/01/08 13:02:59;;;;;;;7.07;6.50;;;;;;;;;;5010295;28;20050;-82
2024/01/08 13:05:25;;;;;;;7.13;6.65;;;;;;;;;;4980784;28;20085;-82
2024/01/08 13:07:50;;;;;;;7.10;6.60;;;;;;;;;;4964906;28;20038;-82
2024/01/08 13:10:16;;;;;;;8.27;7.60;;;;;;;;;;4981421;28;20239;-82
2024/01/08 13:12:42;;;;;;;7.70;7.07;;;;;;;;;;4966568;28;20131;-83
2024/01/08 13:15:08;;;;;;;7.18;6.72;;;;;;;;;;4980163;28;20050;-82
2024/01/08 13:17:34;;;;;;;7.13;6.63;;;;;;;;;;5009601;28;20045;-82
2024/01/08 13:20:00;;;;;;;8.43;6.97;;;;;;;;;;4965606;28;20058;-82
2024/01/08 13:22:25;;;;;;;7.80;7.20;;;;;;;;;;4984348;28;20092;-83
2024/01/08 13:24:51;;;;;;;7.00;6.50;;;;;;;;;;4962914;28;20688;-83
2024/01/08 13:27:16;;;;;;;7.10;6.50;;;;;;;;;;4980966;28;20515;-82
2024/01/08 13:29:42;;;;;;;7.68;7.00;;;;;;;;;;4979937;28;20046;-82
2024/01/08 13:32:08;;;;;;;7.53;6.90;;;;;;;;;;4980166;28;20544;-82
2024/01/08 13:34:34;;;;;;;7.18;6.57;;;;;;;;;;4982721;28;20046;-82
2024/01/08 13:37:00;;;;;;;7.65;7.03;;;;;;;;;;4982059;28;20038;-83
2024/01/08 13:39:26;;;;;;;7.97;7.30;;;;;;;;;;4982630;28;20037;-82
2024/01/08 13:41:52;;;;;;;7.80;7.20;;;;;;;;;;4962967;28;20184;-83
2024/01/08 13:44:17;;;;;;;7.00;6.60;;;;;;;;;;4983682;28;20034;-82
2024/01/08 13:46:43;;;;;;;7.25;6.63;;;;;;;;;;4962991;28;20030;-81
2024/01/08 13:49:08;;;;;;;9.68;8.63;;;;;;;;;;4981725;28;20045;-82
2024/01/08 13:51:34;;;;;;;9.95;8.02;;;;;;;;;;4974158;28;20057;-81
2024/01/08 13:53:59;;;;;;;8.70;6.68;;;;;;;;;;4967527;28;20034;-83
2024/01/08 13:56:26;;;;;;;7.47;6.88;;;;;;;;;;4983207;28;20038;-83
2024/01/08 13:58:51;;;;;;;6.68;6.28;;;;;;;;;;4962847;28;20030;-83
2024/01/08 14:01:17;;;;;;;7.13;6.53;;;;;;;;;;5013844;28;20505;-82
2024/01/08 14:03:43;;;;;;;8.18;7.43;;;;;;;;;;5012206;28;20053;-82
2024/01/08 14:06:09;;;;;;;10.98;7.82;;;;;;;;;;4980583;28;20463;-82
2024/01/08 14:08:34;;;;;;;6.82;6.25;;;;;;;;;;4980807;28;20141;-82
2024/01/08 14:11:00;;;;;;;9.80;9.00;;;;;;;;;;4964579;28;20049;-82
2024/01/08 14:13:25;;;;;;;7.25;6.75;;;;;;;;;;4983004;28;20038;-83
2024/01/08 14:15:51;;;;;;;10.05;9.15;;;;;;;;;;4965157;28;20041;-83
2024/01/08 14:18:17;;;;;;;10.45;9.45;;;;;;;;;;5013520;28;20049;-82
2024/01/08 14:20:43;;;;;;;9.60;8.63;;;;;;;;;;4972858;28;20132;-82
2024/01/08 14:23:09;;;;;;;8.45;7.75;;;;;;;;;;4970228;28;20097;-83
2024/01/08 14:25:35;;;;;;;8.82;8.10;;;;;;;;;;4963866;28;20726;-83
2024/01/08 14:28:00;;;;;;;8.20;7.53;;;;;;;;;;4963636;28;20537;-84
2024/01/08 14:30:26;;;;;;;7.72;7.13;;;;;;;;;;4983184;28;20053;-83
2024/01/08 14:32:52;;;;;;;8.32;7.60;;;;;;;;;;4964302;28;20050;-84
2024/01/08 14:35:18;;;;;;;7.82;7.22;;;;;;;;;;4977708;28;20073;-84
2024/01/08 14:37:47;;;;;;;7.50;6.90;;;;;;;;;;4968541;28;20065;-84